createdAt,value
2022-12-15T00:02:22.793Z,22.73
2022-12-15T00:05:09.538Z,21.23
2022-12-15T00:07:54.723Z,25.23
2022-12-15T00:10:39.922Z,24.43
2022-12-15T00:13:29.280Z,24.23
2022-12-15T00:16:14.876Z,24.47
2022-12-15T00:19:00.436Z,24.33
2022-12-15T00:21:47.474Z,25.63
2022-12-15T00:24:32.573Z,24.33
2022-12-15T00:27:17.905Z,24.23
2022-12-15T00:30:03.402Z,23.87
2022-12-15T00:32:48.878Z,23.37
2022-12-15T00:35:34.329Z,24.23
2022-12-15T00:38:26.634Z,22.43
2022-12-15T00:40:59.032Z,23.50
2022-12-15T00:43:27.350Z,22.47
2022-12-15T00:46:12.814Z,23.30
2022-12-15T00:48:40.631Z,23.07
2022-12-15T00:51:08.097Z,24.70
2022-12-15T00:53:55.216Z,23.77
2022-12-15T00:56:40.772Z,24.73
2022-12-15T00:59:26.236Z,23.63
2022-12-15T01:02:11.449Z,24.43
2022-12-15T01:04:57.193Z,24.80
2022-12-15T01:07:42.373Z,25.10
2022-12-15T01:10:29.579Z,24.63
2022-12-15T01:13:14.876Z,23.93
2022-12-15T01:16:00.289Z,22.23
2022-12-15T01:18:49.483Z,22.80
2022-12-15T01:21:17.541Z,24.47
2022-12-15T01:23:45.232Z,23.93
2022-12-15T01:26:14.344Z,24.60
2022-12-15T01:28:42.079Z,23.03
2022-12-15T01:31:13.178Z,24.50
2022-12-15T01:33:42.795Z,24.87
2022-12-15T01:36:11.634Z,27.13
2022-12-15T01:38:39.371Z,23.40
2022-12-15T01:41:10.322Z,24.83
2022-12-15T01:43:41.928Z,23.63
2022-12-15T01:46:11.693Z,24.57
2022-12-15T01:48:43.041Z,24.10
2022-12-15T01:51:15.926Z,24.27
2022-12-15T01:53:50.211Z,22.97
2022-12-15T01:56:20.142Z,24.00
2022-12-15T01:58:51.382Z,22.97
2022-12-15T02:01:19.291Z,23.33
2022-12-15T02:03:49.062Z,22.07
2022-12-15T02:06:17.942Z,23.77
2022-12-15T02:08:49.180Z,23.33
2022-12-15T02:11:39.814Z,23.10
2022-12-15T02:14:10.767Z,22.40
2022-12-15T02:16:50.401Z,22.33
2022-12-15T02:19:42.250Z,22.73
2022-12-15T02:22:26.933Z,23.53
2022-12-15T02:25:30.454Z,23.13
2022-12-15T02:28:03.810Z,21.40
2022-12-15T02:30:44.241Z,21.60
2022-12-15T02:33:18.381Z,21.33
2022-12-15T02:35:57.838Z,23.73
2022-12-15T02:38:34.726Z,22.23
2022-12-15T02:41:04.633Z,22.60
2022-12-15T02:43:38.761Z,21.83
2022-12-15T02:46:20.786Z,21.73
2022-12-15T02:49:00.763Z,22.17
2022-12-15T02:51:45.099Z,21.93
2022-12-15T02:54:29.650Z,22.50
2022-12-15T02:57:06.134Z,21.67
2022-12-15T02:59:42.980Z,21.33
2022-12-15T03:02:14.828Z,21.43
2022-12-15T03:04:45.407Z,22.10
2022-12-15T03:07:15.280Z,20.30
2022-12-15T03:09:43.229Z,21.07
2022-12-15T03:12:11.519Z,21.33
2022-12-15T03:14:39.276Z,21.80
2022-12-15T03:17:07.481Z,21.07
2022-12-15T03:19:36.659Z,21.83
2022-12-15T03:22:04.471Z,21.73
2022-12-15T03:24:32.193Z,20.60
2022-12-15T03:26:59.929Z,21.67
2022-12-15T03:29:27.563Z,20.13
2022-12-15T03:31:55.242Z,21.00
2022-12-15T03:34:23.526Z,21.70
2022-12-15T03:36:52.608Z,21.30
2022-12-15T03:39:20.362Z,21.57
2022-12-15T03:41:47.983Z,21.80
2022-12-15T03:44:15.864Z,21.73
2022-12-15T03:46:43.529Z,21.30
2022-12-15T03:49:11.362Z,22.47
2022-12-15T03:51:39.467Z,23.37
2022-12-15T03:54:08.791Z,20.97
2022-12-15T03:56:36.496Z,21.37
2022-12-15T03:59:04.189Z,21.43
2022-12-15T04:01:33.621Z,21.33
2022-12-15T04:04:02.281Z,21.70
2022-12-15T04:06:30.717Z,22.83
2022-12-15T04:08:58.377Z,22.27
2022-12-15T04:11:27.542Z,22.27
2022-12-15T04:13:55.273Z,23.13
2022-12-15T04:16:22.996Z,22.80
2022-12-15T04:19:10.898Z,23.50
2022-12-15T04:21:37.557Z,22.53
2022-12-15T04:24:23.715Z,22.93
2022-12-15T04:27:10.757Z,21.50
2022-12-15T04:29:55.991Z,22.37
2022-12-15T04:32:41.985Z,22.03
2022-12-15T04:35:29.045Z,22.27
2022-12-15T04:38:15.194Z,22.20
2022-12-15T04:41:00.377Z,21.20
2022-12-15T04:43:47.531Z,21.43
2022-12-15T04:46:32.743Z,22.03
2022-12-15T04:49:18.301Z,21.77
2022-12-15T04:52:03.514Z,20.47
2022-12-15T04:54:49.084Z,21.03
2022-12-15T04:57:34.445Z,22.57
2022-12-15T05:00:21.120Z,22.63
2022-12-15T05:03:06.757Z,21.80
2022-12-15T05:05:52.032Z,25.47
2022-12-15T05:08:37.124Z,22.40
2022-12-15T05:11:22.251Z,23.07
2022-12-15T05:14:07.428Z,23.87
2022-12-15T05:16:54.231Z,23.83
2022-12-15T05:19:39.761Z,25.13
2022-12-15T05:22:25.158Z,23.67
2022-12-15T05:25:10.485Z,23.07
2022-12-15T05:27:55.602Z,24.23
2022-12-15T05:30:41.110Z,22.77
2022-12-15T05:33:10.102Z,22.87
2022-12-15T05:35:37.915Z,22.00
2022-12-15T05:38:06.323Z,22.83
2022-12-15T05:40:34.074Z,21.93
2022-12-15T05:43:02.189Z,21.83
2022-12-15T05:45:29.902Z,21.43
2022-12-15T05:47:57.863Z,21.03
2022-12-15T05:50:26.851Z,21.97
2022-12-15T05:52:55.702Z,22.40
2022-12-15T05:55:23.476Z,22.63
2022-12-15T05:57:54.923Z,23.77
2022-12-15T06:00:22.978Z,21.67
2022-12-15T06:02:51.034Z,22.93
2022-12-15T06:05:19.021Z,24.37
2022-12-15T06:07:48.062Z,22.07
2022-12-15T06:10:15.972Z,21.93
2022-12-15T06:12:43.926Z,22.30
2022-12-15T06:15:12.026Z,23.33
2022-12-15T06:17:39.729Z,23.30
2022-12-15T06:20:08.534Z,22.13
2022-12-15T06:22:36.683Z,23.50
2022-12-15T06:25:07.056Z,22.83
2022-12-15T06:27:36.837Z,24.17
2022-12-15T06:30:05.403Z,22.83
2022-12-15T06:32:35.692Z,22.43
2022-12-15T06:35:03.462Z,22.57
2022-12-15T06:37:31.109Z,21.37
2022-12-15T06:39:58.771Z,22.00
2022-12-15T06:42:27.945Z,21.97
2022-12-15T06:44:55.769Z,21.37
2022-12-15T06:47:23.495Z,20.47
2022-12-15T06:49:51.131Z,20.83
2022-12-15T06:52:18.786Z,20.20
2022-12-15T06:54:46.476Z,20.63
2022-12-15T06:57:14.192Z,21.07
2022-12-15T06:59:43.568Z,20.70
2022-12-15T07:02:19.247Z,22.97
2022-12-15T07:04:50.742Z,21.87
2022-12-15T07:07:18.843Z,23.33
2022-12-15T07:09:46.684Z,24.07
2022-12-15T07:12:14.536Z,23.47
2022-12-15T07:14:46.407Z,24.30
2022-12-15T07:17:20.754Z,21.73
2022-12-15T07:19:48.431Z,23.77
2022-12-15T07:22:16.178Z,22.63
2022-12-15T07:24:43.916Z,23.63
2022-12-15T07:27:11.646Z,22.23
2022-12-15T07:29:39.289Z,22.83
2022-12-15T07:32:08.607Z,22.43
2022-12-15T07:34:36.750Z,21.33
2022-12-15T07:37:04.618Z,20.87
2022-12-15T07:39:32.848Z,22.67
2022-12-15T07:42:01.399Z,22.50
2022-12-15T07:44:29.963Z,22.10
2022-12-15T07:46:57.761Z,23.00
2022-12-15T07:49:27.142Z,22.83
2022-12-15T07:51:58.433Z,22.00
2022-12-15T07:54:26.184Z,21.77
2022-12-15T07:56:54.102Z,22.27
2022-12-15T07:59:21.793Z,22.00
2022-12-15T08:01:49.791Z,22.57
2022-12-15T08:04:18.633Z,24.20
2022-12-15T08:06:47.715Z,23.07
2022-12-15T08:09:15.410Z,22.47
2022-12-15T08:11:43.113Z,21.80
2022-12-15T08:14:16.910Z,21.83
2022-12-15T08:16:46.023Z,22.80
2022-12-15T08:19:15.539Z,22.23
2022-12-15T08:22:03.815Z,22.27
2022-12-15T08:24:31.567Z,23.17
2022-12-15T08:26:59.949Z,24.03
2022-12-15T08:32:15.493Z,24.23
2022-12-15T08:34:43.487Z,24.10
2022-12-15T08:37:12.571Z,25.40
2022-12-15T08:39:40.565Z,24.93
2022-12-15T08:42:08.261Z,25.50
2022-12-15T08:44:36.104Z,25.63
2022-12-15T08:47:03.948Z,25.10
2022-12-15T08:49:31.636Z,24.97
2022-12-15T08:51:59.897Z,25.43
2022-12-15T08:54:29.089Z,25.43
2022-12-15T08:56:56.814Z,26.30
2022-12-15T08:59:25.209Z,25.13
2022-12-15T09:01:54.370Z,25.97
2022-12-15T09:04:22.130Z,25.93
2022-12-15T09:06:50.904Z,25.70
2022-12-15T09:09:18.908Z,26.30
2022-12-15T09:11:48.554Z,26.37
2022-12-15T09:14:16.600Z,27.43
2022-12-15T09:16:44.442Z,28.77
2022-12-15T09:19:12.344Z,26.93
2022-12-15T09:21:42.938Z,28.57
2022-12-15T09:24:20.614Z,28.87
2022-12-15T09:26:54.103Z,29.10
2022-12-15T09:29:22.204Z,27.87
2022-12-15T09:31:49.992Z,28.73
2022-12-15T09:34:17.854Z,30.67
2022-12-15T09:36:45.562Z,30.67
2022-12-15T09:39:14.432Z,30.23
2022-12-15T09:41:44.088Z,30.50
2022-12-15T09:44:15.528Z,30.43
2022-12-15T09:46:54.138Z,30.17
2022-12-15T09:49:37.977Z,30.80
2022-12-15T09:52:11.220Z,32.53
2022-12-15T09:54:41.593Z,32.27
2022-12-15T09:57:17.669Z,31.97
2022-12-15T10:00:04.728Z,32.83
2022-12-15T10:03:03.536Z,32.00
2022-12-15T10:06:07.225Z,32.10
2022-12-15T10:08:31.350Z,31.30
2022-12-15T10:11:01.490Z,31.73
2022-12-15T10:13:39.115Z,30.03
2022-12-15T10:16:19.435Z,32.87
2022-12-15T10:19:01.705Z,32.10
2022-12-15T10:21:31.823Z,32.63
2022-12-15T10:24:09.987Z,30.83
2022-12-15T10:26:38.450Z,30.20
2022-12-15T10:29:26.332Z,30.77
2022-12-15T10:32:00.588Z,32.37
2022-12-15T10:34:30.221Z,32.00
2022-12-15T10:36:59.198Z,31.97
2022-12-15T10:39:39.264Z,32.50
2022-12-15T10:42:21.085Z,33.00
2022-12-15T10:44:51.158Z,31.60
2022-12-15T10:47:22.698Z,32.23
2022-12-15T10:49:51.304Z,31.50
2022-12-15T10:52:32.097Z,31.73
2022-12-15T10:54:59.901Z,31.73
2022-12-15T10:57:31.721Z,30.53
2022-12-15T11:00:27.315Z,30.87
2022-12-15T11:02:56.614Z,31.23
2022-12-15T11:05:24.611Z,33.23
2022-12-15T11:07:54.838Z,31.87
2022-12-15T11:10:24.725Z,34.03
2022-12-15T11:12:59.388Z,31.83
2022-12-15T11:15:43.184Z,31.23
2022-12-15T11:18:21.711Z,35.87
2022-12-15T11:20:54.113Z,32.70
2022-12-15T11:23:29.693Z,33.53
2022-12-15T11:28:54.394Z,35.27
2022-12-15T11:31:27.646Z,36.73
2022-12-15T11:33:57.116Z,35.93
2022-12-15T11:36:40.979Z,32.37
2022-12-15T11:39:21.918Z,36.57
2022-12-15T11:41:58.692Z,35.13
2022-12-15T11:44:31.273Z,35.63
2022-12-15T11:47:11.087Z,31.83
2022-12-15T11:50:03.691Z,32.47
2022-12-15T11:52:47.861Z,33.77
2022-12-15T11:55:29.629Z,33.57
2022-12-15T11:58:32.487Z,32.97
2022-12-15T12:01:10.915Z,31.83
2022-12-15T12:03:44.662Z,31.27
2022-12-15T12:06:20.597Z,30.57
2022-12-15T12:09:02.734Z,31.50
2022-12-15T12:11:35.735Z,31.93
2022-12-15T12:14:16.847Z,32.03
2022-12-15T12:16:53.904Z,30.17
2022-12-15T12:19:25.987Z,33.93
2022-12-15T12:21:59.724Z,34.30
2022-12-15T12:24:31.127Z,31.77
2022-12-15T12:27:02.745Z,32.13
2022-12-15T12:29:34.685Z,32.60
2022-12-15T12:32:08.676Z,32.70
2022-12-15T12:34:51.180Z,33.13
2022-12-15T12:37:28.806Z,31.60
2022-12-15T12:40:03.236Z,33.00
2022-12-15T12:42:39.687Z,33.37
2022-12-15T12:45:12.303Z,31.53
2022-12-15T12:47:45.131Z,31.93
2022-12-15T12:50:19.697Z,29.40
2022-12-15T12:52:53.444Z,31.90
2022-12-15T12:55:29.509Z,31.03
2022-12-15T12:57:58.062Z,32.23
2022-12-15T13:00:29.010Z,30.77
2022-12-15T13:03:19.143Z,30.50
2022-12-15T13:05:50.552Z,30.90
2022-12-15T13:08:50.945Z,32.93
2022-12-15T13:11:57.869Z,32.03
2022-12-15T13:17:43.164Z,32.07
2022-12-15T13:20:27.042Z,33.17
2022-12-15T13:22:57.384Z,32.40
2022-12-15T13:25:40.592Z,33.43
2022-12-15T13:28:24.380Z,32.37
2022-12-15T13:31:27.478Z,31.43
2022-12-15T13:34:01.896Z,34.47
2022-12-15T13:36:54.845Z,33.60
2022-12-15T13:39:59.118Z,30.57
2022-12-15T13:45:50.256Z,32.77
2022-12-15T13:48:38.599Z,33.37
2022-12-15T13:51:33.212Z,34.97
2022-12-15T13:54:05.251Z,33.23
2022-12-15T13:57:02.402Z,32.90
2022-12-15T13:59:43.897Z,31.30
2022-12-15T14:02:25.551Z,33.50
2022-12-15T14:05:16.466Z,30.80
2022-12-15T14:07:52.670Z,32.03
2022-12-15T14:10:26.183Z,33.17
2022-12-15T14:12:56.969Z,33.87
2022-12-15T14:15:29.653Z,32.57
2022-12-15T14:17:58.978Z,33.53
2022-12-15T14:20:29.305Z,31.70
2022-12-15T14:22:57.125Z,32.13
2022-12-15T14:25:27.896Z,33.77
2022-12-15T14:27:55.931Z,33.30
2022-12-15T14:30:29.219Z,30.80
2022-12-15T14:33:00.202Z,30.63
2022-12-15T14:35:32.568Z,30.47
2022-12-15T14:38:03.890Z,31.77
2022-12-15T14:40:32.305Z,31.33
2022-12-15T14:43:00.649Z,32.20
2022-12-15T14:45:32.271Z,31.77
2022-12-15T14:48:39.396Z,30.27
2022-12-15T14:50:53.258Z,32.67
2022-12-15T14:53:22.940Z,32.40
2022-12-15T14:55:51.481Z,30.97
2022-12-15T14:58:33.319Z,30.87
2022-12-15T15:01:07.216Z,32.63
2022-12-15T15:03:10.904Z,32.50
2022-12-15T15:03:11.089Z,32.97
2022-12-15T15:03:11.249Z,32.40
2022-12-15T15:03:38.160Z,30.00
2022-12-15T15:06:16.884Z,31.17
2022-12-15T15:08:48.064Z,31.30
2022-12-15T15:11:29.350Z,32.53
2022-12-15T15:14:00.464Z,28.90
2022-12-15T15:16:30.177Z,29.57
2022-12-15T15:19:01.875Z,30.07
2022-12-15T15:21:31.654Z,30.60
2022-12-15T15:24:00.802Z,31.43
2022-12-15T15:26:29.786Z,31.53
2022-12-15T15:28:58.181Z,31.23
2022-12-15T15:31:41.468Z,31.67
2022-12-15T15:34:11.438Z,30.63
2022-12-15T15:36:39.969Z,30.50
2022-12-15T15:39:15.031Z,30.27
2022-12-15T15:41:42.928Z,29.07
2022-12-15T15:44:13.895Z,29.73
2022-12-15T15:46:49.331Z,30.20
2022-12-15T15:49:20.332Z,28.00
2022-12-15T15:51:48.345Z,27.37
2022-12-15T15:54:18.827Z,29.93
2022-12-15T15:56:46.546Z,29.17
2022-12-15T15:59:16.321Z,28.27
2022-12-15T16:01:46.476Z,29.33
2022-12-15T16:04:14.729Z,29.33
2022-12-15T16:06:47.231Z,30.07
2022-12-15T16:09:16.753Z,28.57
2022-12-15T16:11:45.900Z,28.67
2022-12-15T16:14:14.167Z,28.40
2022-12-15T16:16:42.630Z,27.27
2022-12-15T16:19:11.953Z,27.40
2022-12-15T16:21:41.881Z,27.67
2022-12-15T16:24:12.230Z,28.03
2022-12-15T16:26:47.174Z,28.13
2022-12-15T16:29:17.097Z,29.30
2022-12-15T16:31:45.928Z,30.20
2022-12-15T16:34:16.477Z,28.53
2022-12-15T16:36:45.192Z,29.20
2022-12-15T16:39:25.599Z,30.67
2022-12-15T16:41:54.810Z,30.13
2022-12-15T16:44:23.532Z,30.47
2022-12-15T16:46:51.372Z,30.60
2022-12-15T16:49:20.991Z,30.77
2022-12-15T16:51:51.630Z,31.67
2022-12-15T16:54:22.626Z,30.90
2022-12-15T16:56:52.000Z,32.87
2022-12-15T16:59:37.369Z,32.30
2022-12-15T17:02:24.375Z,28.80
2022-12-15T17:04:55.199Z,30.83
2022-12-15T17:07:23.043Z,30.20
2022-12-15T17:09:51.503Z,29.27
2022-12-15T17:12:20.085Z,30.13
2022-12-15T17:14:48.034Z,31.57
2022-12-15T17:17:17.581Z,30.97
2022-12-15T17:20:11.659Z,29.97
2022-12-15T17:22:35.997Z,27.63
2022-12-15T17:25:03.879Z,28.40
2022-12-15T17:27:31.857Z,31.07
2022-12-15T17:30:01.068Z,29.00
2022-12-15T17:32:28.756Z,29.63
2022-12-15T17:34:56.630Z,30.70
2022-12-15T17:37:26.180Z,31.13
2022-12-15T17:39:58.291Z,30.07
2022-12-15T17:42:26.172Z,31.17
2022-12-15T17:44:54.052Z,30.40
2022-12-15T17:47:24.057Z,29.27
2022-12-15T17:49:51.699Z,29.13
2022-12-15T17:52:27.072Z,29.67
2022-12-15T17:54:56.107Z,28.30
2022-12-15T17:57:25.448Z,30.13
2022-12-15T17:59:53.168Z,29.07
2022-12-15T18:02:20.968Z,28.57
2022-12-15T18:04:48.757Z,27.27
2022-12-15T18:07:19.116Z,27.43
2022-12-15T18:09:48.015Z,29.43
2022-12-15T18:12:19.187Z,28.27
2022-12-15T18:14:48.263Z,27.03
2022-12-15T18:17:16.043Z,27.27
2022-12-15T18:19:45.572Z,27.33
2022-12-15T18:22:15.197Z,27.43
2022-12-15T18:24:43.136Z,27.53
2022-12-15T18:27:23.171Z,28.67
2022-12-15T18:29:52.672Z,28.83
2022-12-15T18:32:22.214Z,27.07
2022-12-15T18:34:50.938Z,27.07
2022-12-15T18:37:20.676Z,27.77
2022-12-15T18:39:48.642Z,28.23
2022-12-15T18:42:17.956Z,28.70
2022-12-15T18:44:48.027Z,27.77
2022-12-15T18:47:19.783Z,27.83
2022-12-15T18:49:47.857Z,26.23
2022-12-15T18:52:19.905Z,26.90
2022-12-15T18:54:48.321Z,26.60
2022-12-15T18:57:27.411Z,27.57
2022-12-15T18:59:58.302Z,26.53
2022-12-15T19:02:27.631Z,27.57
2022-12-15T19:04:55.923Z,26.13
2022-12-15T19:07:23.692Z,25.57
2022-12-15T19:09:51.626Z,25.47
2022-12-15T19:12:19.715Z,27.83
2022-12-15T19:14:49.177Z,26.50
2022-12-15T19:17:37.090Z,28.47
2022-12-15T19:20:25.984Z,26.40
2022-12-15T19:22:54.033Z,25.87
2022-12-15T19:25:26.101Z,27.60
2022-12-15T19:27:58.551Z,26.13
2022-12-15T19:30:28.236Z,26.57
2022-12-15T19:32:55.905Z,27.47
2022-12-15T19:35:25.702Z,26.50
2022-12-15T19:37:55.442Z,26.97
2022-12-15T19:40:27.408Z,26.17
2022-12-15T19:42:55.841Z,27.07
2022-12-15T19:45:26.083Z,26.37
2022-12-15T19:47:54.188Z,25.90
2022-12-15T19:50:25.543Z,26.67
2022-12-15T19:52:57.201Z,26.73
2022-12-15T19:55:27.727Z,25.57
2022-12-15T19:57:55.734Z,24.63
2022-12-15T20:00:25.012Z,25.67
2022-12-15T20:02:54.930Z,25.10
2022-12-15T20:05:25.560Z,24.80
2022-12-15T20:07:54.557Z,24.73
2022-12-15T20:10:31.296Z,25.07
2022-12-15T20:12:59.858Z,25.17
2022-12-15T20:15:27.594Z,25.63
2022-12-15T20:17:56.724Z,25.20
2022-12-15T20:20:29.980Z,23.93
2022-12-15T20:23:02.487Z,24.43
2022-12-15T20:25:34.387Z,25.67
2022-12-15T20:28:02.658Z,24.57
2022-12-15T20:30:35.080Z,24.70
2022-12-15T20:33:05.188Z,24.70
2022-12-15T20:35:37.790Z,25.10
2022-12-15T20:38:22.205Z,25.00
2022-12-15T20:40:49.897Z,23.80
2022-12-15T20:43:20.476Z,23.40
2022-12-15T20:45:54.717Z,22.83
2022-12-15T20:48:26.565Z,23.73
2022-12-15T20:50:55.662Z,23.70
2022-12-15T20:53:25.614Z,23.13
2022-12-15T20:55:55.177Z,22.13
2022-12-15T20:58:28.282Z,22.47
2022-12-15T21:01:00.944Z,23.30
2022-12-15T21:03:31.175Z,23.13
2022-12-15T21:06:01.087Z,22.73
2022-12-15T21:08:30.798Z,23.00
2022-12-15T21:11:03.424Z,21.90
2022-12-15T21:13:33.875Z,21.90
2022-12-15T21:16:02.144Z,22.17
2022-12-15T21:19:10.849Z,22.50
2022-12-15T21:21:24.893Z,22.13
2022-12-15T21:23:52.584Z,22.43
2022-12-15T21:26:24.066Z,22.47
2022-12-15T21:28:55.377Z,21.20
2022-12-15T21:31:23.919Z,22.90
2022-12-15T21:33:51.661Z,22.43
2022-12-15T21:36:22.417Z,22.40
2022-12-15T21:38:52.784Z,20.83
2022-12-15T21:41:23.970Z,20.63
2022-12-15T21:43:51.824Z,21.37
2022-12-15T21:46:27.773Z,20.87
2022-12-15T21:49:13.412Z,21.83
2022-12-15T21:51:44.507Z,20.47
2022-12-15T21:54:18.286Z,19.60
2022-12-15T21:56:46.547Z,20.30
2022-12-15T21:59:15.335Z,20.53
2022-12-15T22:01:43.663Z,20.23
2022-12-15T22:04:18.988Z,20.60
2022-12-15T22:09:36.920Z,20.33
2022-12-15T22:12:04.822Z,20.20
2022-12-15T22:14:36.005Z,20.13
2022-12-15T22:17:15.172Z,20.17
2022-12-15T22:19:43.471Z,19.93
2022-12-15T22:22:12.539Z,19.67
2022-12-15T22:24:41.061Z,18.43
2022-12-15T22:27:18.686Z,18.10
2022-12-15T22:29:46.544Z,18.07
2022-12-15T22:32:15.683Z,18.20
2022-12-15T22:34:43.418Z,17.47
2022-12-15T22:37:12.457Z,19.07
2022-12-15T22:39:40.681Z,19.30
2022-12-15T22:42:09.163Z,18.83
2022-12-15T22:44:38.842Z,17.57
2022-12-15T22:47:07.590Z,18.53
2022-12-15T22:49:38.447Z,17.83
2022-12-15T22:52:17.181Z,18.43
2022-12-15T22:54:46.286Z,17.97
2022-12-15T22:57:21.133Z,18.43
2022-12-15T22:59:51.916Z,18.07
2022-12-15T23:02:19.710Z,17.97
2022-12-15T23:04:47.957Z,19.10
2022-12-15T23:07:16.879Z,17.10
2022-12-15T23:09:44.932Z,18.10
2022-12-15T23:12:11.593Z,17.43
2022-12-15T23:14:56.723Z,17.73
2022-12-15T23:17:24.954Z,16.53
2022-12-15T23:19:52.676Z,16.77
2022-12-15T23:22:21.782Z,17.67
2022-12-15T23:24:49.789Z,17.37
2022-12-15T23:27:17.857Z,16.60
2022-12-15T23:29:45.813Z,18.13
2022-12-15T23:32:13.556Z,16.37
2022-12-15T23:34:42.654Z,16.70
2022-12-15T23:37:10.942Z,17.57
2022-12-15T23:39:42.446Z,17.10
2022-12-15T23:42:11.064Z,17.87
2022-12-15T23:44:39.225Z,18.33
2022-12-15T23:47:09.067Z,17.17
2022-12-15T23:49:37.363Z,16.93
2022-12-15T23:52:05.720Z,17.40
2022-12-15T23:54:33.413Z,17.77
2022-12-15T23:57:02.784Z,16.40
2022-12-15T23:59:31.023Z,15.67
